createdAt,value
2022-11-12T00:02:43.314Z,11.01
2022-11-12T00:05:49.489Z,10.99
2022-11-12T00:08:54.144Z,10.96
2022-11-12T00:11:58.234Z,10.95
2022-11-12T00:15:02.818Z,10.96
2022-11-12T00:18:07.691Z,10.96
2022-11-12T00:21:11.873Z,10.96
2022-11-12T00:24:16.269Z,10.97
2022-11-12T00:27:20.794Z,10.93
2022-11-12T00:30:25.305Z,10.92
2022-11-12T00:33:29.587Z,10.91
2022-11-12T00:36:34.037Z,10.88
2022-11-12T00:39:38.474Z,10.89
2022-11-12T00:42:42.971Z,10.88
2022-11-12T00:45:47.355Z,10.89
2022-11-12T00:48:51.546Z,10.88
2022-11-12T00:51:55.828Z,10.88
2022-11-12T00:55:00.467Z,10.89
2022-11-12T00:58:04.943Z,10.88
2022-11-12T01:01:13.077Z,10.90
2022-11-12T01:04:17.910Z,10.92
2022-11-12T01:07:22.145Z,10.92
2022-11-12T01:10:26.703Z,10.91
2022-11-12T01:13:31.330Z,10.87
2022-11-12T01:16:39.066Z,10.82
2022-11-12T01:19:43.807Z,10.75
2022-11-12T01:22:48.333Z,10.70
2022-11-12T01:25:52.861Z,10.66
2022-11-12T01:28:57.552Z,10.63
2022-11-12T01:32:01.781Z,10.62
2022-11-12T01:35:06.838Z,10.60
2022-11-12T01:38:11.138Z,10.57
2022-11-12T01:41:21.215Z,10.48
2022-11-12T01:44:30.413Z,10.43
2022-11-12T01:47:35.976Z,10.37
2022-11-12T01:50:41.075Z,10.34
2022-11-12T01:53:49.688Z,10.29
2022-11-12T01:56:57.015Z,10.26
2022-11-12T02:00:08.651Z,10.20
2022-11-12T02:03:20.387Z,10.16
2022-11-12T02:06:25.410Z,10.11
2022-11-12T02:09:31.062Z,10.09
2022-11-12T02:12:54.417Z,10.08
2022-11-12T02:15:58.912Z,10.03
2022-11-12T02:19:04.390Z,10.03
2022-11-12T02:22:08.682Z,10.01
2022-11-12T02:25:14.478Z,9.92
2022-11-12T02:28:18.680Z,9.90
2022-11-12T02:31:22.998Z,9.81
2022-11-12T02:34:27.504Z,9.84
2022-11-12T02:37:31.840Z,9.84
2022-11-12T02:40:36.607Z,9.83
2022-11-12T02:43:41.382Z,9.79
2022-11-12T02:46:45.602Z,9.78
2022-11-12T02:49:50.173Z,9.73
2022-11-12T02:52:55.582Z,9.57
2022-11-12T02:56:01.448Z,9.46
2022-11-12T02:59:06.011Z,9.40
2022-11-12T03:02:10.454Z,9.40
2022-11-12T03:05:15.090Z,9.40
2022-11-12T03:08:19.747Z,9.40
2022-11-12T03:11:24.442Z,9.42
2022-11-12T03:14:28.896Z,9.38
2022-11-12T03:17:34.670Z,9.32
2022-11-12T03:20:39.050Z,9.28
2022-11-12T03:23:43.664Z,9.24
2022-11-12T03:26:48.025Z,9.22
2022-11-12T03:29:52.467Z,9.23
2022-11-12T03:32:56.976Z,9.22
2022-11-12T03:36:01.503Z,9.24
2022-11-12T03:39:06.075Z,9.24
2022-11-12T03:42:10.413Z,9.23
2022-11-12T03:45:16.158Z,9.20
2022-11-12T03:48:20.674Z,9.15
2022-11-12T03:51:24.720Z,9.12
2022-11-12T03:54:29.173Z,9.08
2022-11-12T03:57:34.363Z,9.01
2022-11-12T04:00:39.145Z,8.96
2022-11-12T04:03:43.325Z,8.93
2022-11-12T04:07:05.966Z,8.92
2022-11-12T04:10:10.187Z,8.94
2022-11-12T04:13:29.758Z,8.95
2022-11-12T04:16:52.795Z,8.98
2022-11-12T04:20:15.678Z,8.96
2022-11-12T04:23:19.795Z,8.94
2022-11-12T04:26:24.396Z,8.95
2022-11-12T04:29:46.919Z,8.96
2022-11-12T04:32:58.429Z,8.96
2022-11-12T04:36:02.910Z,8.96
2022-11-12T04:39:07.355Z,8.97
2022-11-12T04:42:30.304Z,8.95
2022-11-12T04:45:34.893Z,8.96
2022-11-12T04:48:39.402Z,8.95
2022-11-12T04:52:01.871Z,8.94
2022-11-12T04:55:07.198Z,8.89
2022-11-12T04:58:11.556Z,8.83
2022-11-12T05:01:15.924Z,8.76
2022-11-12T05:04:20.171Z,8.66
2022-11-12T05:07:24.571Z,8.56
2022-11-12T05:10:30.905Z,8.51
2022-11-12T05:13:35.249Z,8.45
2022-11-12T05:16:40.059Z,8.37
2022-11-12T05:19:44.735Z,8.33
2022-11-12T05:23:05.059Z,8.28
2022-11-12T05:26:10.585Z,8.22
2022-11-12T05:29:14.898Z,8.18
2022-11-12T05:32:19.281Z,8.14
2022-11-12T05:35:23.843Z,8.05
2022-11-12T05:38:28.477Z,8.02
2022-11-12T05:41:51.359Z,7.99
2022-11-12T05:44:57.560Z,7.93
2022-11-12T05:48:02.179Z,7.91
2022-11-12T05:51:13.054Z,7.87
2022-11-12T05:54:31.094Z,7.82
2022-11-12T05:57:35.529Z,7.81
2022-11-12T06:00:40.354Z,7.80
2022-11-12T06:03:44.674Z,7.80
2022-11-12T06:06:48.833Z,7.79
2022-11-12T06:09:53.596Z,7.76
2022-11-12T06:12:58.513Z,7.74
2022-11-12T06:16:03.495Z,7.71
2022-11-12T06:19:07.949Z,7.69
2022-11-12T06:22:13.187Z,7.67
2022-11-12T06:25:18.195Z,7.68
2022-11-12T06:28:22.375Z,7.70
2022-11-12T06:31:26.742Z,7.74
2022-11-12T06:34:31.211Z,7.76
2022-11-12T06:37:35.620Z,7.82
2022-11-12T06:40:40.210Z,7.83
2022-11-12T06:43:44.624Z,7.86
2022-11-12T06:46:48.837Z,7.86
2022-11-12T06:49:53.246Z,7.84
2022-11-12T06:53:00.771Z,7.81
2022-11-12T06:56:07.481Z,7.75
2022-11-12T06:59:12.131Z,7.72
2022-11-12T07:02:16.632Z,7.70
2022-11-12T07:05:20.950Z,7.68
2022-11-12T07:08:25.787Z,7.67
2022-11-12T07:11:31.051Z,7.67
2022-11-12T07:14:35.707Z,7.66
2022-11-12T07:17:39.914Z,7.66
2022-11-12T07:20:44.120Z,7.64
2022-11-12T07:23:48.511Z,7.66
2022-11-12T07:26:53.133Z,7.65
2022-11-12T07:29:57.975Z,7.66
2022-11-12T07:33:02.544Z,7.65
2022-11-12T07:36:10.928Z,7.64
2022-11-12T07:39:15.015Z,7.65
2022-11-12T07:42:19.269Z,7.66
2022-11-12T07:45:23.456Z,7.69
2022-11-12T07:48:30.145Z,7.73
2022-11-12T07:51:34.815Z,7.77
2022-11-12T07:54:39.133Z,7.82
2022-11-12T07:57:43.308Z,7.86
2022-11-12T08:00:47.924Z,7.89
2022-11-12T08:03:52.560Z,7.91
2022-11-12T08:06:57.247Z,7.91
2022-11-12T08:10:01.716Z,7.95
2022-11-12T08:13:05.947Z,7.97
2022-11-12T08:16:10.338Z,7.99
2022-11-12T08:19:14.626Z,8.02
2022-11-12T08:22:19.713Z,8.04
2022-11-12T08:25:24.498Z,8.08
2022-11-12T08:28:30.186Z,8.11
2022-11-12T08:31:34.638Z,8.15
2022-11-12T08:34:41.364Z,8.20
2022-11-12T08:37:45.834Z,8.27
2022-11-12T08:40:50.636Z,8.31
2022-11-12T08:43:55.149Z,8.34
2022-11-12T08:46:59.556Z,8.39
2022-11-12T08:50:03.808Z,8.48
2022-11-12T08:53:13.576Z,8.52
2022-11-12T08:56:17.974Z,8.58
2022-11-12T08:59:22.376Z,8.66
2022-11-12T09:02:26.759Z,8.71
2022-11-12T09:05:31.524Z,8.73
2022-11-12T09:08:38.068Z,8.79
2022-11-12T09:11:42.997Z,8.82
2022-11-12T09:14:47.616Z,8.87
2022-11-12T09:18:01.670Z,8.92
2022-11-12T09:21:12.524Z,9.03
2022-11-12T09:24:17.219Z,9.13
2022-11-12T09:27:21.557Z,9.14
2022-11-12T09:30:25.838Z,9.25
2022-11-12T09:33:33.864Z,9.32
2022-11-12T09:36:39.954Z,9.46
2022-11-12T09:39:44.700Z,9.53
2022-11-12T09:42:53.450Z,9.63
2022-11-12T09:46:35.322Z,9.72
2022-11-12T09:49:50.246Z,9.81
2022-11-12T09:53:16.978Z,9.88
2022-11-12T09:56:23.864Z,9.94
2022-11-12T09:59:35.280Z,10.02
2022-11-12T10:03:04.515Z,10.06
2022-11-12T10:06:19.400Z,10.16
2022-11-12T10:09:38.134Z,10.43
2022-11-12T10:13:24.474Z,10.86
2022-11-12T10:16:43.885Z,11.00
2022-11-12T10:20:28.970Z,11.55
2022-11-12T10:23:49.423Z,11.79
2022-11-12T10:26:56.979Z,11.69
2022-11-12T10:30:13.488Z,11.59
2022-11-12T10:33:18.062Z,11.76
2022-11-12T10:36:33.748Z,11.93
2022-11-12T10:39:41.882Z,12.06
2022-11-12T10:42:58.542Z,11.99
2022-11-12T10:46:24.795Z,11.76
2022-11-12T10:49:29.274Z,11.69
2022-11-12T10:52:33.972Z,11.89
2022-11-12T10:55:59.386Z,12.21
2022-11-12T10:59:25.413Z,12.26
2022-11-12T11:02:29.819Z,12.25
2022-11-12T11:05:48.025Z,12.36
2022-11-12T11:09:07.843Z,12.42
2022-11-12T11:12:31.809Z,12.38
2022-11-12T11:15:36.814Z,12.30
2022-11-12T11:18:47.702Z,12.30
2022-11-12T11:22:19.075Z,12.40
2022-11-12T11:25:28.373Z,12.52
2022-11-12T11:28:53.515Z,12.47
2022-11-12T11:32:00.758Z,12.34
2022-11-12T11:35:44.725Z,12.26
2022-11-12T11:39:26.748Z,12.26
2022-11-12T11:42:50.463Z,12.24
2022-11-12T11:46:32.736Z,12.35
2022-11-12T11:50:33.751Z,12.49
2022-11-12T11:53:53.695Z,12.55
2022-11-12T11:57:02.379Z,12.55
2022-11-12T12:00:21.257Z,12.71
2022-11-12T12:04:07.867Z,12.60
2022-11-12T12:07:36.689Z,12.60
2022-11-12T12:11:21.087Z,12.70
2022-11-12T12:14:55.074Z,12.80
2022-11-12T12:18:54.944Z,12.97
2022-11-12T12:22:01.348Z,13.02
2022-11-12T12:25:30.111Z,12.96
2022-11-12T12:28:55.196Z,12.74
2022-11-12T12:32:23.082Z,12.62
2022-11-12T12:35:40.802Z,12.75
2022-11-12T12:39:47.871Z,12.78
2022-11-12T12:43:27.472Z,12.74
2022-11-12T12:46:41.068Z,12.69
2022-11-12T12:49:48.980Z,12.56
2022-11-12T12:53:21.976Z,12.40
2022-11-12T12:56:31.775Z,12.33
2022-11-12T12:59:37.113Z,12.20
2022-11-12T13:02:42.242Z,12.07
2022-11-12T13:06:05.589Z,11.90
2022-11-12T13:09:15.730Z,11.86
2022-11-12T13:12:19.798Z,11.77
2022-11-12T13:15:44.734Z,11.71
2022-11-12T13:18:51.673Z,11.80
2022-11-12T13:22:17.791Z,11.76
2022-11-12T13:25:22.213Z,11.81
2022-11-12T13:28:26.947Z,11.66
2022-11-12T13:31:34.097Z,11.66
2022-11-12T13:34:38.845Z,11.66
2022-11-12T13:38:01.735Z,11.63
2022-11-12T13:41:42.515Z,11.67
2022-11-12T13:44:53.425Z,11.61
2022-11-12T13:48:00.282Z,11.60
2022-11-12T13:51:38.378Z,11.54
2022-11-12T13:54:43.049Z,11.52
2022-11-12T13:57:57.481Z,11.50
2022-11-12T14:01:04.351Z,11.42
2022-11-12T14:04:13.627Z,11.39
2022-11-12T14:08:01.044Z,11.36
2022-11-12T14:11:26.997Z,11.40
2022-11-12T14:14:49.076Z,11.25
2022-11-12T14:18:09.016Z,11.25
2022-11-12T14:21:18.190Z,11.29
2022-11-12T14:24:23.534Z,11.19
2022-11-12T14:27:33.916Z,11.15
2022-11-12T14:30:44.773Z,11.16
2022-11-12T14:33:49.218Z,11.06
2022-11-12T14:36:57.494Z,10.96
2022-11-12T14:40:02.004Z,10.93
2022-11-12T14:43:06.774Z,10.95
2022-11-12T14:46:39.653Z,10.91
2022-11-12T14:49:49.008Z,10.89
2022-11-12T14:53:07.145Z,10.86
2022-11-12T14:56:48.788Z,10.85
2022-11-12T14:59:53.609Z,10.78
2022-11-12T15:03:01.971Z,10.73
2022-11-12T15:06:06.440Z,10.69
2022-11-12T15:09:10.773Z,10.66
2022-11-12T15:12:30.610Z,10.53
2022-11-12T15:15:49.556Z,10.39
2022-11-12T15:19:24.465Z,10.26
2022-11-12T15:22:34.408Z,10.27
2022-11-12T15:25:38.524Z,10.20
2022-11-12T15:29:02.775Z,10.08
2022-11-12T15:32:13.739Z,10.02
2022-11-12T15:35:30.650Z,9.96
2022-11-12T15:38:37.836Z,9.88
2022-11-12T15:41:42.366Z,9.85
2022-11-12T15:44:47.575Z,9.86
2022-11-12T15:47:52.810Z,9.81
2022-11-12T15:50:56.996Z,9.76
2022-11-12T15:54:01.025Z,9.73
2022-11-12T15:57:05.548Z,9.68
2022-11-12T16:00:18.170Z,9.63
2022-11-12T16:03:23.251Z,9.58
2022-11-12T16:06:27.733Z,9.56
2022-11-12T16:09:31.812Z,9.48
2022-11-12T16:12:36.491Z,9.41
2022-11-12T16:15:41.080Z,9.44
2022-11-12T16:18:45.378Z,9.43
2022-11-12T16:21:49.724Z,9.36
2022-11-12T16:24:53.961Z,9.33
2022-11-12T16:27:59.561Z,9.27
2022-11-12T16:31:03.954Z,9.22
2022-11-12T16:34:08.346Z,9.18
2022-11-12T16:37:14.146Z,9.16
2022-11-12T16:40:25.785Z,9.02
2022-11-12T16:43:30.342Z,9.02
2022-11-12T16:46:40.300Z,9.00
2022-11-12T16:49:44.721Z,8.87
2022-11-12T16:52:49.673Z,8.84
2022-11-12T16:55:56.414Z,8.84
2022-11-12T16:59:00.938Z,8.85
2022-11-12T17:02:13.956Z,8.81
2022-11-12T17:05:27.490Z,8.79
2022-11-12T17:08:34.110Z,8.80
2022-11-12T17:11:38.947Z,8.82
2022-11-12T17:14:43.609Z,8.81
2022-11-12T17:17:48.169Z,8.78
2022-11-12T17:20:52.711Z,8.80
2022-11-12T17:23:58.667Z,8.82
2022-11-12T17:27:03.568Z,8.73
2022-11-12T17:30:08.466Z,8.71
2022-11-12T17:33:12.929Z,8.66
2022-11-12T17:36:21.858Z,8.60
2022-11-12T17:39:27.329Z,8.51
2022-11-12T17:42:31.786Z,8.48
2022-11-12T17:45:36.151Z,8.48
2022-11-12T17:48:41.253Z,8.45
2022-11-12T17:51:45.713Z,8.45
2022-11-12T17:54:49.905Z,8.49
2022-11-12T17:57:54.528Z,8.49
2022-11-12T18:01:19.810Z,8.47
2022-11-12T18:04:26.554Z,8.54
2022-11-12T18:07:33.142Z,8.66
2022-11-12T18:10:38.575Z,8.76
2022-11-12T18:13:43.130Z,8.79
2022-11-12T18:16:48.347Z,8.89
2022-11-12T18:19:52.527Z,8.95
2022-11-12T18:22:56.955Z,8.89
2022-11-12T18:26:01.383Z,8.79
2022-11-12T18:29:07.542Z,8.79
2022-11-12T18:32:13.788Z,8.81
2022-11-12T18:35:18.888Z,8.82
2022-11-12T18:38:23.244Z,8.89
2022-11-12T18:41:30.574Z,8.92
2022-11-12T18:44:36.795Z,8.97
2022-11-12T18:47:41.455Z,9.01
2022-11-12T18:50:46.175Z,9.07
2022-11-12T18:53:55.532Z,9.06
2022-11-12T18:57:01.079Z,9.02
2022-11-12T19:00:06.331Z,8.97
2022-11-12T19:03:10.854Z,8.95
2022-11-12T19:06:16.622Z,8.91
2022-11-12T19:09:21.159Z,8.79
2022-11-12T19:12:25.446Z,8.79
2022-11-12T19:15:34.030Z,8.83
2022-11-12T19:18:40.298Z,8.87
2022-11-12T19:21:44.736Z,8.92
2022-11-12T19:24:49.150Z,8.92
2022-11-12T19:27:53.828Z,9.00
2022-11-12T19:31:02.659Z,9.01
2022-11-12T19:34:06.943Z,8.95
2022-11-12T19:40:35.341Z,8.89
2022-11-12T19:43:41.552Z,8.85
2022-11-12T19:46:45.668Z,8.88
2022-11-12T19:49:50.084Z,8.87
2022-11-12T19:52:54.870Z,8.83
2022-11-12T19:56:04.825Z,8.84
2022-11-12T19:59:10.057Z,8.86
2022-11-12T20:02:15.007Z,8.82
2022-11-12T20:05:19.343Z,8.78
2022-11-12T20:08:26.970Z,8.76
2022-11-12T20:11:31.627Z,8.70
2022-11-12T20:14:36.205Z,8.60
2022-11-12T20:17:40.870Z,8.43
2022-11-12T20:20:57.160Z,8.32
2022-11-12T20:24:01.801Z,8.25
2022-11-12T20:27:07.706Z,8.19
2022-11-12T20:30:12.819Z,8.12
2022-11-12T20:33:17.304Z,8.00
2022-11-12T20:36:23.123Z,7.88
2022-11-12T20:39:27.729Z,7.81
2022-11-12T20:42:32.047Z,7.81
2022-11-12T20:45:36.477Z,7.75
2022-11-12T20:48:43.607Z,7.72
2022-11-12T20:51:49.053Z,7.69
2022-11-12T20:54:53.574Z,7.64
2022-11-12T20:57:57.995Z,7.68
2022-11-12T21:01:04.177Z,7.65
2022-11-12T21:04:12.318Z,7.57
2022-11-12T21:07:16.632Z,7.48
2022-11-12T21:10:21.439Z,7.44
2022-11-12T21:13:27.957Z,7.42
2022-11-12T21:16:32.506Z,7.42
2022-11-12T21:19:37.342Z,7.35
2022-11-12T21:22:41.517Z,7.27
2022-11-12T21:25:46.322Z,7.27
2022-11-12T21:28:53.982Z,7.24
2022-11-12T21:31:58.620Z,7.22
2022-11-12T21:35:03.057Z,7.18
2022-11-12T21:38:07.448Z,7.18
2022-11-12T21:41:19.053Z,7.20
2022-11-12T21:44:24.128Z,7.21
2022-11-12T21:47:29.005Z,7.25
2022-11-12T21:50:33.558Z,7.26
2022-11-12T21:53:40.777Z,7.28
2022-11-12T21:56:46.069Z,7.29
2022-11-12T21:59:50.501Z,7.26
2022-11-12T22:02:58.034Z,7.24
2022-11-12T22:06:04.816Z,7.27
2022-11-12T22:09:09.062Z,7.27
2022-11-12T22:12:13.843Z,7.25
2022-11-12T22:15:24.004Z,7.19
2022-11-12T22:18:29.460Z,7.09
2022-11-12T22:21:40.040Z,7.06
2022-11-12T22:24:44.679Z,6.96
2022-11-12T22:27:49.622Z,6.89
2022-11-12T22:30:55.006Z,6.84
2022-11-12T22:34:02.173Z,6.84
2022-11-12T22:37:06.588Z,6.87
2022-11-12T22:40:13.724Z,6.85
2022-11-12T22:43:18.619Z,6.85
2022-11-12T22:46:26.538Z,6.86
2022-11-12T22:49:31.453Z,6.87
2022-11-12T22:52:36.367Z,6.88
2022-11-12T22:55:41.044Z,6.87
2022-11-12T22:58:47.173Z,6.82
2022-11-12T23:01:51.644Z,6.77
2022-11-12T23:04:56.304Z,6.72
2022-11-12T23:08:00.958Z,6.78
2022-11-12T23:11:09.494Z,6.77
2022-11-12T23:14:13.867Z,6.64
2022-11-12T23:17:17.782Z,6.57
2022-11-12T23:20:22.275Z,6.56
2022-11-12T23:23:26.539Z,6.54
2022-11-12T23:26:31.263Z,6.48
2022-11-12T23:29:35.982Z,6.47
2022-11-12T23:32:40.210Z,6.44
2022-11-12T23:35:44.540Z,6.40
2022-11-12T23:38:53.165Z,6.38
2022-11-12T23:42:05.495Z,6.38
2022-11-12T23:45:10.731Z,6.37
2022-11-12T23:48:14.813Z,6.35
2022-11-12T23:51:21.115Z,6.29
2022-11-12T23:54:25.342Z,6.17
2022-11-12T23:57:30.105Z,6.12
